createdAt,value
2018-04-19T00:02:09.148Z,26.60
2018-04-19T00:04:36.639Z,26.03
2018-04-19T00:07:04.170Z,25.63
2018-04-19T00:09:32.038Z,23.40
2018-04-19T00:12:00.432Z,26.80
2018-04-19T00:14:27.958Z,26.27
2018-04-19T00:16:55.923Z,25.47
2018-04-19T00:19:23.418Z,26.37
2018-04-19T00:21:51.258Z,25.00
2018-04-19T00:24:18.745Z,24.30
2018-04-19T00:26:46.245Z,24.37
2018-04-19T00:29:15.458Z,26.07
2018-04-19T00:31:42.952Z,26.00
2018-04-19T00:34:10.437Z,27.67
2018-04-19T00:36:38.239Z,26.87
2018-04-19T00:39:06.588Z,25.50
2018-04-19T00:41:34.092Z,25.30
2018-04-19T00:44:01.824Z,25.03
2018-04-19T00:46:30.236Z,24.97
2018-04-19T00:48:58.307Z,24.63
2018-04-19T00:51:25.941Z,27.67
2018-04-19T00:53:53.805Z,27.30
2018-04-19T00:56:21.793Z,26.77
2018-04-19T00:58:49.313Z,24.37
2018-04-19T01:01:16.831Z,23.77
2018-04-19T01:03:44.728Z,25.87
2018-04-19T01:06:12.330Z,25.63
2018-04-19T01:08:40.218Z,27.20
2018-04-19T01:11:07.708Z,25.33
2018-04-19T01:13:35.198Z,30.83
2018-04-19T01:16:03.031Z,28.03
2018-04-19T01:18:30.841Z,26.47
2018-04-19T01:20:58.329Z,28.03
2018-04-19T01:23:26.172Z,30.47
2018-04-19T01:25:54.051Z,27.07
2018-04-19T01:28:21.887Z,25.83
2018-04-19T01:30:49.620Z,27.80
2018-04-19T01:33:17.124Z,26.47
2018-04-19T01:35:56.451Z,27.77
2018-04-19T01:38:24.444Z,27.93
2018-04-19T01:40:52.983Z,28.47
2018-04-19T01:43:22.160Z,29.67
2018-04-19T01:45:49.698Z,28.53
2018-04-19T01:48:17.189Z,29.17
2018-04-19T01:50:45.381Z,26.90
2018-04-19T01:53:12.863Z,32.00
2018-04-19T01:55:40.362Z,25.57
2018-04-19T01:58:07.862Z,29.63
2018-04-19T02:00:36.268Z,28.30
2018-04-19T02:03:04.119Z,27.87
2018-04-19T02:05:31.776Z,29.37
2018-04-19T02:07:59.527Z,30.60
2018-04-19T02:10:27.027Z,30.87
2018-04-19T02:12:54.845Z,31.60
2018-04-19T02:15:22.522Z,30.20
2018-04-19T02:17:50.246Z,30.27
2018-04-19T02:20:18.136Z,30.67
2018-04-19T02:22:46.397Z,32.47
2018-04-19T02:25:13.898Z,31.77
2018-04-19T02:27:41.656Z,28.67
2018-04-19T02:30:09.334Z,31.37
2018-04-19T02:32:37.198Z,31.27
2018-04-19T02:35:04.896Z,31.10
2018-04-19T02:37:33.005Z,31.73
2018-04-19T02:40:01.273Z,27.97
2018-04-19T02:42:29.704Z,27.97
2018-04-19T02:44:57.353Z,27.83
2018-04-19T02:47:24.992Z,34.27
2018-04-19T02:49:52.854Z,29.90
2018-04-19T02:52:20.373Z,29.87
2018-04-19T02:54:48.313Z,31.93
2018-04-19T02:57:15.799Z,28.27
2018-04-19T02:59:43.599Z,29.37
2018-04-19T03:02:11.874Z,28.57
2018-04-19T03:04:40.484Z,29.67
2018-04-19T03:07:08.149Z,30.37
2018-04-19T03:09:35.974Z,27.93
2018-04-19T03:12:03.460Z,30.27
2018-04-19T03:14:31.549Z,29.53
2018-04-19T03:16:59.106Z,26.40
2018-04-19T03:19:26.948Z,30.10
2018-04-19T03:21:55.336Z,28.33
2018-04-19T03:24:23.080Z,30.73
2018-04-19T03:26:51.325Z,28.33
2018-04-19T03:29:19.126Z,28.30
2018-04-19T03:31:46.628Z,32.27
2018-04-19T03:34:14.665Z,28.80
2018-04-19T03:36:42.156Z,31.57
2018-04-19T03:39:10.107Z,29.20
2018-04-19T03:41:37.951Z,33.70
2018-04-19T03:44:05.765Z,29.53
2018-04-19T03:46:33.294Z,32.20
2018-04-19T03:49:01.565Z,29.23
2018-04-19T03:51:29.055Z,28.83
2018-04-19T03:53:56.610Z,27.83
2018-04-19T03:56:24.076Z,30.87
2018-04-19T03:58:51.608Z,28.10
2018-04-19T04:01:19.213Z,28.97
2018-04-19T04:03:46.684Z,27.93
2018-04-19T04:06:15.277Z,28.53
2018-04-19T04:08:42.966Z,30.47
2018-04-19T04:11:10.808Z,30.97
2018-04-19T04:13:39.064Z,26.93
2018-04-19T04:16:06.876Z,28.67
2018-04-19T04:21:50.749Z,28.87
2018-04-19T04:24:18.581Z,25.97
2018-04-19T04:26:46.900Z,33.57
2018-04-19T04:29:14.847Z,29.40
2018-04-19T04:31:42.859Z,30.10
2018-04-19T04:34:10.964Z,29.97
2018-04-19T04:36:38.493Z,28.43
2018-04-19T04:39:05.999Z,28.40
2018-04-19T04:41:33.494Z,28.50
2018-04-19T04:44:01.001Z,29.10
2018-04-19T04:46:29.284Z,27.90
2018-04-19T04:48:56.818Z,28.00
2018-04-19T04:51:24.349Z,28.50
2018-04-19T04:53:52.208Z,29.63
2018-04-19T04:56:20.037Z,26.97
2018-04-19T04:58:47.509Z,26.47
2018-04-19T05:01:15.000Z,25.07
2018-04-19T05:03:42.619Z,29.67
2018-04-19T05:06:10.124Z,27.17
2018-04-19T05:08:37.646Z,28.07
2018-04-19T05:11:05.148Z,25.93
2018-04-19T05:13:32.948Z,24.40
2018-04-19T05:16:00.458Z,25.80
2018-04-19T05:18:28.277Z,25.90
2018-04-19T05:20:56.309Z,27.07
2018-04-19T05:23:24.014Z,25.27
2018-04-19T05:25:51.519Z,23.17
2018-04-19T05:28:19.316Z,28.17
2018-04-19T06:50:10.159Z,16.20
2018-04-19T06:52:38.105Z,15.90
2018-04-19T06:55:05.787Z,16.40
2018-04-19T06:57:33.439Z,16.70
2018-04-19T07:00:01.319Z,17.33
2018-04-19T07:02:28.949Z,16.23
2018-04-19T07:04:57.797Z,16.20
2018-04-19T07:07:25.318Z,16.27
2018-04-19T07:09:53.585Z,14.40
2018-04-19T07:12:21.096Z,15.33
2018-04-19T07:14:48.632Z,14.00
2018-04-19T07:17:16.360Z,12.40
2018-04-19T07:19:44.055Z,11.87
2018-04-19T07:22:12.129Z,13.97
2018-04-19T07:24:39.767Z,12.67
2018-04-19T07:27:07.947Z,12.57
2018-04-19T07:29:35.462Z,13.27
2018-04-19T07:32:03.276Z,13.23
2018-04-19T07:34:31.766Z,13.77
2018-04-19T07:36:59.275Z,13.33
2018-04-19T07:39:27.415Z,13.70
2018-04-19T07:41:55.338Z,11.80
2018-04-19T07:44:22.848Z,14.73
2018-04-19T07:46:50.690Z,12.70
2018-04-19T07:49:18.993Z,13.80
2018-04-19T07:51:47.594Z,13.60
2018-04-19T07:54:15.105Z,13.20
2018-04-19T07:56:42.972Z,13.77
2018-04-19T07:59:10.665Z,17.37
2018-04-19T08:01:38.268Z,14.67
2018-04-19T08:04:06.885Z,14.93
2018-04-19T08:06:34.488Z,12.80
2018-04-19T08:09:02.265Z,13.40
2018-04-19T08:11:30.485Z,14.57
2018-04-19T08:13:58.116Z,12.97
2018-04-19T08:16:26.016Z,16.07
2018-04-19T08:18:53.907Z,14.60
2018-04-19T08:21:21.411Z,14.33
2018-04-19T08:23:49.883Z,17.67
2018-04-19T08:26:17.409Z,12.80
2018-04-19T08:28:46.334Z,13.40
2018-04-19T08:31:15.282Z,13.77
2018-04-19T08:33:42.916Z,15.80
2018-04-19T08:36:11.678Z,14.57
2018-04-19T08:38:39.617Z,14.97
2018-04-19T08:41:07.213Z,15.53
2018-04-19T08:43:34.926Z,15.77
2018-04-19T08:46:03.439Z,16.53
2018-04-19T08:48:32.161Z,17.67
2018-04-19T08:50:59.988Z,15.63
2018-04-19T08:53:27.565Z,17.30
2018-04-19T08:55:56.945Z,17.57
2018-04-19T08:58:24.482Z,15.17
2018-04-19T09:00:52.148Z,15.90
2018-04-19T09:03:20.073Z,18.43
2018-04-19T09:05:47.600Z,15.87
2018-04-19T09:08:15.889Z,18.60
2018-04-19T09:10:43.772Z,17.43
2018-04-19T09:13:12.499Z,14.67
2018-04-19T09:15:39.989Z,17.43
2018-04-19T09:18:09.047Z,14.90
2018-04-19T09:20:36.582Z,15.63
2018-04-19T09:23:04.118Z,13.53
2018-04-19T09:25:31.669Z,15.97
2018-04-19T09:28:00.921Z,16.80
2018-04-19T09:30:28.450Z,13.27
2018-04-19T09:32:56.311Z,15.03
2018-04-19T09:35:24.386Z,14.90
2018-04-19T09:37:52.517Z,16.50
2018-04-19T09:40:20.053Z,13.07
2018-04-19T09:42:47.553Z,13.17
2018-04-19T09:45:15.314Z,14.30
2018-04-19T09:47:43.223Z,12.97
2018-04-19T09:50:10.720Z,14.77
2018-04-19T09:52:39.154Z,15.70
2018-04-19T09:55:06.640Z,14.53
2018-04-19T09:57:34.148Z,13.77
2018-04-19T10:00:02.585Z,14.20
2018-04-19T10:02:30.912Z,14.57
2018-04-19T10:05:03.954Z,16.10
2018-04-19T10:07:32.392Z,12.97
2018-04-19T10:10:00.288Z,15.33
2018-04-19T10:12:28.366Z,14.67
2018-04-19T10:14:56.084Z,13.77
2018-04-19T10:17:24.014Z,16.73
2018-04-19T10:19:51.972Z,13.13
2018-04-19T10:22:19.451Z,16.10
2018-04-19T10:24:47.509Z,12.87
2018-04-19T10:27:15.796Z,13.90
2018-04-19T10:29:43.717Z,14.57
2018-04-19T10:32:11.263Z,16.33
2018-04-19T10:34:38.771Z,12.13
2018-04-19T10:37:07.672Z,15.47
2018-04-19T10:39:36.503Z,16.00
2018-04-19T10:42:04.242Z,15.50
2018-04-19T13:44:55.953Z,12.17
2018-04-19T13:47:23.695Z,8.87
2018-04-19T13:49:51.865Z,7.53
2018-04-19T13:52:19.380Z,14.20
2018-04-19T13:54:47.331Z,8.57
2018-04-19T13:57:15.360Z,8.33
2018-04-19T13:59:42.852Z,9.77
2018-04-19T14:02:10.685Z,9.27
2018-04-19T14:04:38.187Z,11.00
2018-04-19T14:07:06.122Z,11.23
2018-04-19T14:09:33.646Z,9.17
2018-04-19T14:12:01.937Z,9.27
2018-04-19T14:14:30.219Z,9.93
2018-04-19T14:16:59.571Z,11.57
2018-04-19T14:19:27.104Z,23.63
2018-04-19T14:21:54.856Z,9.80
2018-04-19T14:24:22.349Z,9.13
2018-04-19T14:26:50.919Z,8.87
2018-04-19T14:29:18.440Z,10.30
2018-04-19T14:31:46.365Z,6.67
2018-04-19T14:34:14.805Z,9.17
2018-04-19T14:36:42.664Z,11.13
2018-04-19T14:39:10.156Z,10.13
2018-04-19T14:41:38.305Z,9.13
2018-04-19T14:44:05.834Z,8.60
2018-04-19T14:46:34.561Z,11.73
2018-04-19T14:49:02.069Z,8.03
2018-04-19T14:51:29.889Z,11.47
2018-04-19T14:53:57.398Z,7.60
2018-04-19T14:56:25.933Z,7.03
2018-04-19T14:58:53.442Z,8.43
2018-04-19T15:01:21.375Z,10.63
2018-04-19T15:03:48.872Z,11.87
2018-04-19T15:06:17.676Z,7.03
2018-04-19T15:08:45.286Z,9.97
2018-04-19T15:11:13.694Z,7.10
2018-04-19T15:13:41.565Z,7.13
2018-04-19T15:16:09.116Z,5.80
2018-04-19T15:18:38.583Z,10.60
2018-04-19T15:21:06.202Z,6.47
2018-04-19T15:23:34.126Z,5.93
2018-04-19T15:26:01.638Z,5.30
2018-04-19T15:28:30.781Z,5.93
2018-04-19T15:30:58.257Z,5.17
2018-04-19T15:33:29.357Z,6.13
2018-04-19T15:35:57.159Z,6.40
2018-04-19T15:38:25.097Z,8.03
2018-04-19T15:40:53.045Z,14.20
2018-04-19T15:43:20.645Z,8.10
2018-04-19T15:45:49.392Z,8.00
2018-04-19T15:48:17.012Z,8.03
2018-04-19T15:50:45.514Z,6.60
2018-04-19T15:53:13.492Z,7.30
2018-04-19T15:55:40.992Z,12.03
2018-04-19T15:58:09.617Z,11.43
2018-04-19T16:00:37.389Z,5.87
2018-04-19T16:03:05.322Z,8.37
2018-04-19T16:05:33.673Z,7.40
2018-04-19T16:08:02.515Z,7.17
2018-04-19T16:10:30.056Z,12.13
2018-04-19T16:12:57.849Z,4.73
2018-04-19T16:15:25.632Z,9.03
2018-04-19T16:17:53.135Z,5.87
2018-04-19T16:20:20.816Z,6.17
2018-04-19T16:22:49.345Z,7.30
2018-04-19T16:25:17.122Z,7.20
2018-04-19T16:27:45.812Z,9.07
2018-04-19T16:30:13.370Z,11.03
2018-04-19T16:32:40.847Z,5.50
2018-04-19T16:35:08.377Z,8.77
2018-04-19T16:37:36.955Z,6.07
2018-04-19T16:40:04.525Z,6.03
2018-04-19T16:42:33.663Z,6.17
2018-04-19T16:45:01.158Z,7.17
2018-04-19T16:47:29.489Z,6.60
2018-04-19T16:50:04.127Z,6.30
2018-04-19T16:52:33.097Z,6.03
2018-04-19T16:55:05.506Z,5.40
2018-04-19T16:57:33.374Z,9.13
2018-04-19T17:00:00.972Z,5.70
2018-04-19T17:02:29.700Z,7.03
2018-04-19T17:04:57.957Z,8.70
2018-04-19T17:07:26.201Z,6.40
2018-04-19T17:09:53.887Z,11.17
2018-04-19T17:12:21.392Z,7.20
2018-04-19T17:14:49.917Z,6.37
2018-04-19T17:17:17.662Z,5.60
2018-04-19T17:22:42.473Z,6.43
2018-04-19T17:25:10.353Z,8.80
2018-04-19T17:27:37.847Z,5.53
2018-04-19T17:30:06.851Z,5.60
2018-04-19T17:32:34.455Z,4.87
2018-04-19T17:35:02.012Z,5.13
2018-04-19T17:37:29.881Z,4.00
2018-04-19T17:39:57.718Z,9.07
2018-04-19T17:42:26.301Z,10.37
2018-04-19T17:44:53.822Z,4.43
2018-04-19T17:47:22.432Z,8.20
2018-04-19T17:49:49.920Z,5.00
2018-04-19T17:52:17.759Z,7.30
2018-04-19T17:54:46.748Z,4.40
2018-04-19T17:57:14.266Z,4.73
2018-04-19T17:59:42.002Z,6.37
2018-04-19T18:02:09.758Z,6.20
2018-04-19T18:04:37.294Z,10.50
2018-04-19T18:07:05.560Z,6.90
2018-04-19T18:09:33.472Z,6.30
2018-04-19T18:12:00.971Z,7.30
2018-04-19T18:14:28.989Z,8.57
2018-04-19T18:16:57.023Z,8.43
2018-04-19T18:19:24.520Z,9.17
2018-04-19T18:21:52.408Z,11.33
2018-04-19T18:24:19.925Z,7.03
2018-04-19T18:26:48.197Z,8.77
2018-04-19T18:29:16.802Z,4.90
2018-04-19T18:31:44.323Z,8.40
2018-04-19T18:34:12.112Z,5.20
2018-04-19T18:36:40.935Z,7.93
2018-04-19T18:39:08.442Z,7.37
2018-04-19T18:41:36.554Z,5.90
2018-04-19T18:44:04.222Z,6.43
2018-04-19T18:46:32.125Z,7.17
2018-04-19T18:49:01.476Z,10.07
2018-04-19T18:51:29.162Z,8.53
2018-04-19T18:53:56.813Z,5.60
2018-04-19T18:56:24.382Z,6.80
2018-04-19T18:58:52.944Z,7.20
2018-04-19T19:01:20.441Z,5.53
2018-04-19T19:03:47.966Z,6.33
2018-04-19T19:06:15.501Z,6.60
2018-04-19T19:08:43.828Z,10.03
2018-04-19T19:11:11.909Z,6.77
2018-04-19T19:13:39.538Z,6.07
2018-04-19T19:16:08.346Z,7.20
2018-04-19T19:18:47.759Z,12.17
2018-04-19T19:21:15.629Z,9.07
2018-04-19T19:23:45.802Z,9.60
2018-04-19T19:26:14.946Z,13.73
2018-04-19T19:28:43.013Z,11.40
2018-04-19T19:31:10.518Z,12.40
2018-04-19T19:33:38.033Z,11.07
2018-04-19T19:36:06.166Z,13.63
2018-04-19T19:38:33.731Z,10.87
2018-04-19T19:41:02.334Z,10.57
2018-04-19T19:43:29.822Z,11.13
2018-04-19T19:45:57.796Z,13.30
2018-04-19T19:48:25.350Z,13.37
2018-04-19T19:50:52.849Z,11.20
2018-04-19T19:53:20.412Z,10.80
2018-04-19T19:55:48.315Z,8.03
2018-04-19T19:58:16.175Z,8.83
2018-04-19T20:00:44.445Z,9.17
2018-04-19T20:03:11.943Z,9.83
2018-04-19T20:05:40.350Z,9.73
2018-04-19T20:08:09.061Z,7.53
2018-04-19T20:10:37.327Z,9.57
2018-04-19T20:13:05.637Z,9.47
2018-04-19T20:15:34.323Z,11.60
2018-04-19T20:18:02.149Z,12.30
2018-04-19T20:20:34.401Z,10.23
2018-04-19T20:23:01.950Z,6.07
2018-04-19T20:25:29.611Z,10.27
2018-04-19T20:27:57.132Z,11.63
2018-04-19T20:30:24.645Z,12.70
2018-04-19T20:32:53.596Z,8.90
2018-04-19T20:35:21.321Z,8.13
2018-04-19T20:37:50.488Z,9.90
2018-04-19T20:40:18.410Z,6.63
2018-04-19T20:42:45.935Z,11.10
2018-04-19T20:45:14.224Z,13.57
2018-04-19T20:47:41.870Z,7.63
2018-04-19T20:50:10.129Z,11.17
2018-04-19T20:52:37.692Z,10.50
2018-04-19T20:55:05.200Z,9.40
2018-04-19T20:57:33.049Z,8.27
2018-04-19T21:00:00.551Z,8.90
2018-04-19T21:02:28.360Z,11.52
2018-04-19T21:04:56.284Z,9.60
2018-04-19T21:07:23.791Z,12.20
2018-04-19T21:09:52.312Z,7.13
2018-04-19T21:12:19.838Z,9.53
2018-04-19T21:14:47.928Z,8.33
2018-04-19T21:17:15.433Z,11.80
2018-04-19T21:19:43.776Z,7.50
2018-04-19T21:22:11.396Z,11.10
2018-04-19T21:24:39.277Z,8.87
2018-04-19T21:27:06.893Z,7.87
2018-04-19T21:29:34.394Z,10.23
2018-04-19T21:32:01.881Z,7.50
2018-04-19T21:34:29.387Z,8.97
2018-04-19T21:36:57.637Z,8.37
2018-04-19T21:39:25.779Z,8.10
2018-04-19T21:41:53.317Z,9.27
2018-04-19T21:44:21.175Z,8.70
2018-04-19T21:46:49.079Z,8.70
2018-04-19T21:57:34.358Z,8.37
2018-04-19T22:00:01.856Z,7.97
2018-04-19T22:02:30.363Z,7.97
2018-04-19T22:04:58.105Z,13.00
2018-04-19T22:07:26.378Z,11.70
2018-04-19T22:09:54.888Z,7.13
2018-04-19T22:12:23.460Z,7.23
2018-04-19T22:14:50.949Z,9.67
2018-04-19T22:17:18.996Z,9.43
2018-04-19T22:19:46.502Z,11.10
2018-04-19T22:22:14.115Z,8.20
2018-04-19T22:24:41.984Z,10.67
2018-04-19T22:27:09.482Z,7.90
2018-04-19T22:29:36.984Z,6.60
2018-04-19T22:32:05.683Z,11.90
2018-04-19T22:34:34.084Z,9.50
2018-04-19T22:37:01.636Z,9.43
2018-04-19T22:39:29.445Z,7.80
2018-04-19T22:41:57.085Z,7.63
2018-04-19T22:44:25.029Z,7.97
2018-04-19T22:46:52.553Z,7.97
2018-04-19T22:49:20.061Z,8.20
2018-04-19T22:51:47.680Z,8.50
2018-04-19T22:54:15.767Z,12.87
2018-04-19T22:56:43.414Z,8.60
2018-04-19T22:59:10.907Z,8.23
2018-04-19T23:01:38.540Z,6.33
2018-04-19T23:04:06.440Z,5.23
2018-04-19T23:06:33.926Z,10.37
2018-04-19T23:09:01.755Z,8.83
2018-04-19T23:11:29.261Z,8.10
2018-04-19T23:13:57.665Z,7.07
2018-04-19T23:16:25.536Z,7.23
2018-04-19T23:18:53.023Z,9.37
2018-04-19T23:21:20.866Z,7.03
2018-04-19T23:23:48.769Z,9.03
2018-04-19T23:26:16.536Z,9.60
2018-04-19T23:28:44.323Z,7.90
2018-04-19T23:31:11.830Z,10.30
2018-04-19T23:33:39.348Z,9.50
2018-04-19T23:36:07.244Z,11.57
2018-04-19T23:38:34.726Z,9.70
2018-04-19T23:41:02.583Z,7.13
2018-04-19T23:43:30.448Z,6.80
2018-04-19T23:45:57.931Z,10.63
2018-04-19T23:48:26.052Z,9.53
2018-04-19T23:50:53.652Z,9.97
2018-04-19T23:53:21.141Z,8.40
2018-04-19T23:55:49.465Z,10.23
2018-04-19T23:58:17.144Z,10.97
